sensor_id;sensor_type;location;lat;lon;timestamp;P1;durP1;ratioP1;P2;durP2;ratioP2
51475;SDS011;37554;50.362;7.568;2023-03-02T00:00:57;4.80;;;3.55;;
51475;SDS011;37554;50.362;7.568;2023-03-02T00:03:27;4.80;;;3.53;;
51475;SDS011;37554;50.362;7.568;2023-03-02T00:05:54;3.97;;;3.53;;
51475;SDS011;37554;50.362;7.568;2023-03-02T00:08:21;4.50;;;4.10;;
51475;SDS011;37554;50.362;7.568;2023-03-02T00:10:47;4.68;;;4.20;;
51475;SDS011;37554;50.362;7.568;2023-03-02T00:13:13;3.97;;;3.58;;
51475;SDS011;37554;50.362;7.568;2023-03-02T00:15:39;4.07;;;3.67;;
51475;SDS011;37554;50.362;7.568;2023-03-02T00:18:04;4.28;;;3.88;;
51475;SDS011;37554;50.362;7.568;2023-03-02T00:20:30;3.97;;;3.42;;
51475;SDS011;37554;50.362;7.568;2023-03-02T00:22:58;4.28;;;3.60;;
51475;SDS011;37554;50.362;7.568;2023-03-02T00:25:24;4.38;;;3.40;;
51475;SDS011;37554;50.362;7.568;2023-03-02T00:27:49;4.15;;;3.75;;
51475;SDS011;37554;50.362;7.568;2023-03-02T00:30:15;5.28;;;3.80;;
51475;SDS011;37554;50.362;7.568;2023-03-02T00:32:40;4.15;;;3.60;;
51475;SDS011;37554;50.362;7.568;2023-03-02T00:35:06;4.05;;;3.63;;
51475;SDS011;37554;50.362;7.568;2023-03-02T00:37:33;3.67;;;3.33;;
51475;SDS011;37554;50.362;7.568;2023-03-02T00:40:00;5.15;;;3.72;;
51475;SDS011;37554;50.362;7.568;2023-03-02T00:42:26;4.93;;;3.72;;
51475;SDS011;37554;50.362;7.568;2023-03-02T00:44:51;6.43;;;3.85;;
51475;SDS011;37554;50.362;7.568;2023-03-02T00:47:17;4.68;;;3.83;;
51475;SDS011;37554;50.362;7.568;2023-03-02T00:49:43;3.67;;;3.35;;
51475;SDS011;37554;50.362;7.568;2023-03-02T00:52:13;4.10;;;3.70;;
51475;SDS011;37554;50.362;7.568;2023-03-02T00:54:39;4.93;;;3.85;;
51475;SDS011;37554;50.362;7.568;2023-03-02T00:57:04;4.63;;;4.00;;
51475;SDS011;37554;50.362;7.568;2023-03-02T00:59:30;5.90;;;4.07;;
51475;SDS011;37554;50.362;7.568;2023-03-02T01:01:56;5.57;;;3.42;;
51475;SDS011;37554;50.362;7.568;2023-03-02T01:04:24;4.53;;;3.83;;
51475;SDS011;37554;50.362;7.568;2023-03-02T01:06:55;4.97;;;4.00;;
51475;SDS011;37554;50.362;7.568;2023-03-02T01:09:22;4.55;;;3.80;;
51475;SDS011;37554;50.362;7.568;2023-03-02T01:11:47;4.30;;;3.42;;
51475;SDS011;37554;50.362;7.568;2023-03-02T01:14:13;4.28;;;3.45;;
51475;SDS011;37554;50.362;7.568;2023-03-02T01:16:39;4.18;;;3.78;;
51475;SDS011;37554;50.362;7.568;2023-03-02T01:19:05;5.50;;;4.13;;
51475;SDS011;37554;50.362;7.568;2023-03-02T01:21:31;4.25;;;3.60;;
51475;SDS011;37554;50.362;7.568;2023-03-02T01:23:56;4.50;;;4.00;;
51475;SDS011;37554;50.362;7.568;2023-03-02T01:26:22;4.82;;;4.32;;
51475;SDS011;37554;50.362;7.568;2023-03-02T01:28:48;5.03;;;4.30;;
51475;SDS011;37554;50.362;7.568;2023-03-02T01:31:14;4.20;;;3.83;;
51475;SDS011;37554;50.362;7.568;2023-03-02T01:33:40;4.30;;;3.83;;
51475;SDS011;37554;50.362;7.568;2023-03-02T01:36:05;4.90;;;3.85;;
51475;SDS011;37554;50.362;7.568;2023-03-02T01:38:32;4.45;;;3.85;;
51475;SDS011;37554;50.362;7.568;2023-03-02T01:40:57;4.45;;;4.05;;
51475;SDS011;37554;50.362;7.568;2023-03-02T01:43:23;5.43;;;3.95;;
51475;SDS011;37554;50.362;7.568;2023-03-02T01:48:17;5.10;;;4.15;;
51475;SDS011;37554;50.362;7.568;2023-03-02T01:50:47;4.55;;;3.80;;
51475;SDS011;37554;50.362;7.568;2023-03-02T01:53:13;4.35;;;3.95;;
51475;SDS011;37554;50.362;7.568;2023-03-02T01:55:40;4.20;;;3.80;;
51475;SDS011;37554;50.362;7.568;2023-03-02T01:58:08;4.18;;;3.78;;
51475;SDS011;37554;50.362;7.568;2023-03-02T02:00:37;4.53;;;4.03;;
51475;SDS011;37554;50.362;7.568;2023-03-02T02:03:05;4.97;;;4.35;;
51475;SDS011;37554;50.362;7.568;2023-03-02T02:05:35;6.03;;;4.43;;
51475;SDS011;37554;50.362;7.568;2023-03-02T02:08:04;4.85;;;4.13;;
51475;SDS011;37554;50.362;7.568;2023-03-02T02:10:31;4.38;;;3.97;;
51475;SDS011;37554;50.362;7.568;2023-03-02T02:12:58;5.03;;;3.85;;
51475;SDS011;37554;50.362;7.568;2023-03-02T02:15:23;4.20;;;3.80;;
51475;SDS011;37554;50.362;7.568;2023-03-02T02:17:50;4.78;;;3.97;;
51475;SDS011;37554;50.362;7.568;2023-03-02T02:20:23;4.28;;;3.85;;
51475;SDS011;37554;50.362;7.568;2023-03-02T02:23:20;4.50;;;3.83;;
51475;SDS011;37554;50.362;7.568;2023-03-02T02:26:10;4.82;;;4.10;;
51475;SDS011;37554;50.362;7.568;2023-03-02T02:31:26;4.80;;;4.30;;
51475;SDS011;37554;50.362;7.568;2023-03-02T02:37:12;4.60;;;3.78;;
51475;SDS011;37554;50.362;7.568;2023-03-02T02:39:45;5.50;;;4.60;;
51475;SDS011;37554;50.362;7.568;2023-03-02T02:42:14;4.78;;;4.13;;
51475;SDS011;37554;50.362;7.568;2023-03-02T02:44:48;4.78;;;4.00;;
51475;SDS011;37554;50.362;7.568;2023-03-02T02:47:16;4.28;;;3.88;;
51475;SDS011;37554;50.362;7.568;2023-03-02T02:49:44;4.43;;;3.97;;
51475;SDS011;37554;50.362;7.568;2023-03-02T02:52:16;4.35;;;3.95;;
51475;SDS011;37554;50.362;7.568;2023-03-02T02:54:44;4.30;;;3.53;;
51475;SDS011;37554;50.362;7.568;2023-03-02T02:57:12;5.32;;;4.43;;
51475;SDS011;37554;50.362;7.568;2023-03-02T02:59:57;4.63;;;4.20;;
51475;SDS011;37554;50.362;7.568;2023-03-02T03:02:25;4.65;;;4.15;;
51475;SDS011;37554;50.362;7.568;2023-03-02T03:04:52;4.68;;;4.18;;
51475;SDS011;37554;50.362;7.568;2023-03-02T03:07:27;4.80;;;3.92;;
51475;SDS011;37554;50.362;7.568;2023-03-02T03:09:59;6.43;;;4.30;;
51475;SDS011;37554;50.362;7.568;2023-03-02T03:12:32;4.50;;;4.10;;
51475;SDS011;37554;50.362;7.568;2023-03-02T03:14:59;4.32;;;3.53;;
51475;SDS011;37554;50.362;7.568;2023-03-02T03:17:26;5.10;;;4.10;;
51475;SDS011;37554;50.362;7.568;2023-03-02T03:19:52;4.82;;;4.32;;
51475;SDS011;37554;50.362;7.568;2023-03-02T03:22:18;4.43;;;3.88;;
51475;SDS011;37554;50.362;7.568;2023-03-02T03:24:44;5.22;;;4.32;;
51475;SDS011;37554;50.362;7.568;2023-03-02T03:27:11;5.72;;;4.10;;
51475;SDS011;37554;50.362;7.568;2023-03-02T03:29:40;4.45;;;4.05;;
51475;SDS011;37554;50.362;7.568;2023-03-02T03:32:10;6.10;;;4.07;;
51475;SDS011;37554;50.362;7.568;2023-03-02T03:34:36;4.43;;;4.03;;
51475;SDS011;37554;50.362;7.568;2023-03-02T03:37:05;4.43;;;4.03;;
51475;SDS011;37554;50.362;7.568;2023-03-02T03:39:35;5.00;;;4.50;;
51475;SDS011;37554;50.362;7.568;2023-03-02T03:42:00;4.70;;;4.05;;
51475;SDS011;37554;50.362;7.568;2023-03-02T03:44:26;5.97;;;4.65;;
51475;SDS011;37554;50.362;7.568;2023-03-02T03:46:52;6.07;;;4.40;;
51475;SDS011;37554;50.362;7.568;2023-03-02T03:49:18;5.32;;;4.70;;
51475;SDS011;37554;50.362;7.568;2023-03-02T03:51:43;5.57;;;4.25;;
51475;SDS011;37554;50.362;7.568;2023-03-02T03:54:09;4.30;;;3.90;;
51475;SDS011;37554;50.362;7.568;2023-03-02T03:56:37;4.57;;;4.10;;
51475;SDS011;37554;50.362;7.568;2023-03-02T03:59:05;5.38;;;4.38;;
51475;SDS011;37554;50.362;7.568;2023-03-02T04:01:34;6.18;;;4.43;;
51475;SDS011;37554;50.362;7.568;2023-03-02T04:04:05;4.97;;;4.28;;
51475;SDS011;37554;50.362;7.568;2023-03-02T04:06:34;6.25;;;4.43;;
51475;SDS011;37554;50.362;7.568;2023-03-02T04:09:01;6.63;;;4.80;;
51475;SDS011;37554;50.362;7.568;2023-03-02T04:11:29;4.95;;;4.38;;
51475;SDS011;37554;50.362;7.568;2023-03-02T04:13:57;4.95;;;4.45;;
51475;SDS011;37554;50.362;7.568;2023-03-02T04:16:22;5.05;;;4.43;;
51475;SDS011;37554;50.362;7.568;2023-03-02T04:18:48;5.82;;;4.68;;
51475;SDS011;37554;50.362;7.568;2023-03-02T04:21:14;6.47;;;4.82;;
51475;SDS011;37554;50.362;7.568;2023-03-02T04:23:39;5.90;;;4.80;;
51475;SDS011;37554;50.362;7.568;2023-03-02T04:26:05;5.35;;;4.38;;
51475;SDS011;37554;50.362;7.568;2023-03-02T04:28:31;5.15;;;4.65;;
51475;SDS011;37554;50.362;7.568;2023-03-02T04:30:56;4.88;;;4.38;;
51475;SDS011;37554;50.362;7.568;2023-03-02T04:33:22;6.22;;;4.90;;
51475;SDS011;37554;50.362;7.568;2023-03-02T04:35:48;7.93;;;5.18;;
51475;SDS011;37554;50.362;7.568;2023-03-02T04:38:14;5.88;;;4.88;;
51475;SDS011;37554;50.362;7.568;2023-03-02T04:40:39;6.38;;;4.63;;
51475;SDS011;37554;50.362;7.568;2023-03-02T04:43:05;6.68;;;5.03;;
51475;SDS011;37554;50.362;7.568;2023-03-02T04:45:31;6.65;;;5.05;;
51475;SDS011;37554;50.362;7.568;2023-03-02T04:47:57;6.85;;;4.85;;
51475;SDS011;37554;50.362;7.568;2023-03-02T04:50:22;6.40;;;4.82;;
51475;SDS011;37554;50.362;7.568;2023-03-02T04:52:48;5.28;;;4.50;;
51475;SDS011;37554;50.362;7.568;2023-03-02T04:55:21;6.78;;;5.05;;
51475;SDS011;37554;50.362;7.568;2023-03-02T04:57:48;6.30;;;5.13;;
51475;SDS011;37554;50.362;7.568;2023-03-02T05:00:14;5.65;;;5.05;;
51475;SDS011;37554;50.362;7.568;2023-03-02T05:02:41;6.28;;;4.53;;
51475;SDS011;37554;50.362;7.568;2023-03-02T05:05:07;5.57;;;4.88;;
51475;SDS011;37554;50.362;7.568;2023-03-02T05:07:38;9.15;;;5.53;;
51475;SDS011;37554;50.362;7.568;2023-03-02T05:10:04;6.45;;;4.70;;
51475;SDS011;37554;50.362;7.568;2023-03-02T05:12:30;6.13;;;5.00;;
51475;SDS011;37554;50.362;7.568;2023-03-02T05:14:55;5.57;;;4.60;;
51475;SDS011;37554;50.362;7.568;2023-03-02T05:17:21;5.20;;;4.63;;
51475;SDS011;37554;50.362;7.568;2023-03-02T05:19:47;6.65;;;4.85;;
51475;SDS011;37554;50.362;7.568;2023-03-02T05:22:12;6.15;;;4.80;;
51475;SDS011;37554;50.362;7.568;2023-03-02T05:24:38;8.30;;;4.35;;
51475;SDS011;37554;50.362;7.568;2023-03-02T05:27:03;4.93;;;4.43;;
51475;SDS011;37554;50.362;7.568;2023-03-02T05:29:29;5.43;;;4.70;;
51475;SDS011;37554;50.362;7.568;2023-03-02T05:31:54;7.22;;;4.78;;
51475;SDS011;37554;50.362;7.568;2023-03-02T05:34:20;6.65;;;5.53;;
51475;SDS011;37554;50.362;7.568;2023-03-02T05:36:46;9.02;;;5.35;;
51475;SDS011;37554;50.362;7.568;2023-03-02T05:39:11;7.00;;;4.97;;
51475;SDS011;37554;50.362;7.568;2023-03-02T05:41:37;5.88;;;4.90;;
51475;SDS011;37554;50.362;7.568;2023-03-02T05:44:03;6.22;;;5.00;;
51475;SDS011;37554;50.362;7.568;2023-03-02T05:46:33;7.35;;;4.57;;
51475;SDS011;37554;50.362;7.568;2023-03-02T05:48:58;6.00;;;4.75;;
51475;SDS011;37554;50.362;7.568;2023-03-02T05:51:24;7.05;;;5.00;;
51475;SDS011;37554;50.362;7.568;2023-03-02T05:53:50;6.47;;;5.00;;
51475;SDS011;37554;50.362;7.568;2023-03-02T05:56:15;6.88;;;4.68;;
51475;SDS011;37554;50.362;7.568;2023-03-02T05:58:41;6.70;;;4.68;;
51475;SDS011;37554;50.362;7.568;2023-03-02T06:01:07;4.90;;;4.22;;
51475;SDS011;37554;50.362;7.568;2023-03-02T06:03:35;8.35;;;4.85;;
51475;SDS011;37554;50.362;7.568;2023-03-02T06:06:00;5.32;;;4.65;;
51475;SDS011;37554;50.362;7.568;2023-03-02T06:08:26;6.05;;;5.00;;
51475;SDS011;37554;50.362;7.568;2023-03-02T06:10:55;6.90;;;4.70;;
51475;SDS011;37554;50.362;7.568;2023-03-02T06:13:21;7.13;;;4.63;;
51475;SDS011;37554;50.362;7.568;2023-03-02T06:15:46;6.70;;;5.28;;
51475;SDS011;37554;50.362;7.568;2023-03-02T06:18:12;7.03;;;5.53;;
51475;SDS011;37554;50.362;7.568;2023-03-02T06:20:38;7.00;;;5.35;;
51475;SDS011;37554;50.362;7.568;2023-03-02T06:23:04;5.13;;;4.63;;
51475;SDS011;37554;50.362;7.568;2023-03-02T06:25:30;6.88;;;5.30;;
51475;SDS011;37554;50.362;7.568;2023-03-02T06:27:56;8.10;;;5.60;;
51475;SDS011;37554;50.362;7.568;2023-03-02T06:30:22;7.55;;;5.28;;
51475;SDS011;37554;50.362;7.568;2023-03-02T06:32:49;6.30;;;5.43;;
51475;SDS011;37554;50.362;7.568;2023-03-02T06:35:15;7.40;;;5.68;;
51475;SDS011;37554;50.362;7.568;2023-03-02T06:37:41;7.40;;;5.75;;
51475;SDS011;37554;50.362;7.568;2023-03-02T06:40:07;7.25;;;5.85;;
51475;SDS011;37554;50.362;7.568;2023-03-02T06:42:37;7.72;;;6.25;;
51475;SDS011;37554;50.362;7.568;2023-03-02T06:45:04;11.15;;;7.25;;
51475;SDS011;37554;50.362;7.568;2023-03-02T06:47:31;11.73;;;8.05;;
51475;SDS011;37554;50.362;7.568;2023-03-02T06:49:57;11.45;;;8.10;;
51475;SDS011;37554;50.362;7.568;2023-03-02T06:52:26;11.85;;;7.10;;
51475;SDS011;37554;50.362;7.568;2023-03-02T06:54:53;9.60;;;6.55;;
51475;SDS011;37554;50.362;7.568;2023-03-02T06:57:22;8.57;;;6.65;;
51475;SDS011;37554;50.362;7.568;2023-03-02T06:59:51;10.82;;;6.40;;
51475;SDS011;37554;50.362;7.568;2023-03-02T07:02:19;12.50;;;6.30;;
51475;SDS011;37554;50.362;7.568;2023-03-02T07:04:45;9.15;;;6.30;;
51475;SDS011;37554;50.362;7.568;2023-03-02T07:07:16;9.60;;;6.00;;
51475;SDS011;37554;50.362;7.568;2023-03-02T07:09:42;14.00;;;5.85;;
51475;SDS011;37554;50.362;7.568;2023-03-02T07:12:11;6.50;;;5.80;;
51475;SDS011;37554;50.362;7.568;2023-03-02T07:14:37;7.63;;;5.25;;
51475;SDS011;37554;50.362;7.568;2023-03-02T07:17:03;6.93;;;5.05;;
51475;SDS011;37554;50.362;7.568;2023-03-02T07:19:29;8.90;;;5.63;;
51475;SDS011;37554;50.362;7.568;2023-03-02T07:22:04;11.18;;;5.38;;
51475;SDS011;37554;50.362;7.568;2023-03-02T07:24:30;7.22;;;5.47;;
51475;SDS011;37554;50.362;7.568;2023-03-02T07:26:58;14.15;;;5.47;;
51475;SDS011;37554;50.362;7.568;2023-03-02T07:29:31;6.43;;;5.10;;
51475;SDS011;37554;50.362;7.568;2023-03-02T07:31:59;9.60;;;5.60;;
51475;SDS011;37554;50.362;7.568;2023-03-02T07:34:28;8.23;;;5.40;;
51475;SDS011;37554;50.362;7.568;2023-03-02T07:36:56;7.53;;;5.47;;
51475;SDS011;37554;50.362;7.568;2023-03-02T07:39:25;9.40;;;5.78;;
51475;SDS011;37554;50.362;7.568;2023-03-02T07:41:56;8.35;;;5.10;;
51475;SDS011;37554;50.362;7.568;2023-03-02T07:44:26;9.65;;;5.90;;
51475;SDS011;37554;50.362;7.568;2023-03-02T07:46:52;7.75;;;6.30;;
51475;SDS011;37554;50.362;7.568;2023-03-02T07:49:19;12.52;;;6.97;;
51475;SDS011;37554;50.362;7.568;2023-03-02T07:51:44;8.35;;;6.32;;
51475;SDS011;37554;50.362;7.568;2023-03-02T07:54:10;9.52;;;6.47;;
51475;SDS011;37554;50.362;7.568;2023-03-02T07:56:36;12.45;;;6.43;;
51475;SDS011;37554;50.362;7.568;2023-03-02T07:59:11;8.95;;;6.63;;
51475;SDS011;37554;50.362;7.568;2023-03-02T08:01:37;10.05;;;6.57;;
51475;SDS011;37554;50.362;7.568;2023-03-02T08:04:03;11.05;;;6.55;;
51475;SDS011;37554;50.362;7.568;2023-03-02T08:06:29;12.25;;;6.22;;
51475;SDS011;37554;50.362;7.568;2023-03-02T08:08:56;8.45;;;6.28;;
51475;SDS011;37554;50.362;7.568;2023-03-02T08:11:25;9.55;;;6.03;;
51475;SDS011;37554;50.362;7.568;2023-03-02T08:14:00;8.60;;;5.68;;
51475;SDS011;37554;50.362;7.568;2023-03-02T08:16:27;9.48;;;5.55;;
51475;SDS011;37554;50.362;7.568;2023-03-02T08:18:53;7.45;;;5.93;;
51475;SDS011;37554;50.362;7.568;2023-03-02T08:21:28;8.68;;;5.45;;
51475;SDS011;37554;50.362;7.568;2023-03-02T08:23:57;8.77;;;5.90;;
51475;SDS011;37554;50.362;7.568;2023-03-02T08:26:23;8.00;;;6.47;;
51475;SDS011;37554;50.362;7.568;2023-03-02T08:28:51;7.40;;;5.53;;
51475;SDS011;37554;50.362;7.568;2023-03-02T08:31:17;6.32;;;5.20;;
51475;SDS011;37554;50.362;7.568;2023-03-02T08:33:43;9.02;;;5.75;;
51475;SDS011;37554;50.362;7.568;2023-03-02T08:36:11;8.20;;;5.30;;
51475;SDS011;37554;50.362;7.568;2023-03-02T08:38:39;9.40;;;5.25;;
51475;SDS011;37554;50.362;7.568;2023-03-02T08:41:05;6.78;;;5.05;;
51475;SDS011;37554;50.362;7.568;2023-03-02T08:43:34;6.78;;;5.25;;
51475;SDS011;37554;50.362;7.568;2023-03-02T08:45:59;6.47;;;4.93;;
51475;SDS011;37554;50.362;7.568;2023-03-02T08:48:49;9.15;;;6.53;;
51475;SDS011;37554;50.362;7.568;2023-03-02T08:51:20;8.18;;;5.70;;
51475;SDS011;37554;50.362;7.568;2023-03-02T08:53:50;7.00;;;5.95;;
51475;SDS011;37554;50.362;7.568;2023-03-02T08:56:21;8.38;;;5.45;;
51475;SDS011;37554;50.362;7.568;2023-03-02T08:58:51;7.57;;;6.00;;
51475;SDS011;37554;50.362;7.568;2023-03-02T09:01:26;7.85;;;6.05;;
51475;SDS011;37554;50.362;7.568;2023-03-02T09:03:56;6.80;;;5.50;;
51475;SDS011;37554;50.362;7.568;2023-03-02T09:06:25;9.45;;;5.88;;
51475;SDS011;37554;50.362;7.568;2023-03-02T09:08:56;6.60;;;5.40;;
51475;SDS011;37554;50.362;7.568;2023-03-02T09:11:24;7.05;;;5.80;;
51475;SDS011;37554;50.362;7.568;2023-03-02T09:13:51;6.60;;;5.85;;
51475;SDS011;37554;50.362;7.568;2023-03-02T09:16:17;5.45;;;4.97;;
51475;SDS011;37554;50.362;7.568;2023-03-02T09:18:44;7.70;;;5.57;;
51475;SDS011;37554;50.362;7.568;2023-03-02T09:21:11;5.90;;;5.18;;
51475;SDS011;37554;50.362;7.568;2023-03-02T09:23:36;7.47;;;5.53;;
51475;SDS011;37554;50.362;7.568;2023-03-02T09:26:02;6.65;;;5.07;;
51475;SDS011;37554;50.362;7.568;2023-03-02T09:28:28;6.53;;;5.13;;
51475;SDS011;37554;50.362;7.568;2023-03-02T09:30:56;6.22;;;5.30;;
51475;SDS011;37554;50.362;7.568;2023-03-02T09:33:23;5.97;;;4.97;;
51475;SDS011;37554;50.362;7.568;2023-03-02T09:35:49;6.85;;;4.88;;
51475;SDS011;37554;50.362;7.568;2023-03-02T09:38:15;7.63;;;5.70;;
51475;SDS011;37554;50.362;7.568;2023-03-02T09:40:48;5.38;;;4.57;;
51475;SDS011;37554;50.362;7.568;2023-03-02T09:43:37;5.72;;;4.47;;
51475;SDS011;37554;50.362;7.568;2023-03-02T09:49:06;7.43;;;5.20;;
51475;SDS011;37554;50.362;7.568;2023-03-02T09:54:35;6.05;;;4.88;;
51475;SDS011;37554;50.362;7.568;2023-03-02T09:57:02;7.65;;;4.35;;
51475;SDS011;37554;50.362;7.568;2023-03-02T09:59:40;7.70;;;4.57;;
51475;SDS011;37554;50.362;7.568;2023-03-02T10:02:26;5.25;;;4.20;;
51475;SDS011;37554;50.362;7.568;2023-03-02T10:04:53;5.90;;;4.35;;
51475;SDS011;37554;50.362;7.568;2023-03-02T10:09:54;4.60;;;3.97;;
51475;SDS011;37554;50.362;7.568;2023-03-02T10:12:47;6.13;;;4.10;;
51475;SDS011;37554;50.362;7.568;2023-03-02T10:15:18;5.68;;;4.50;;
51475;SDS011;37554;50.362;7.568;2023-03-02T10:18:21;9.55;;;4.97;;
51475;SDS011;37554;50.362;7.568;2023-03-02T10:26:20;6.03;;;5.20;;
51475;SDS011;37554;50.362;7.568;2023-03-02T10:34:42;7.70;;;5.32;;
51475;SDS011;37554;50.362;7.568;2023-03-02T10:37:10;8.98;;;5.55;;
51475;SDS011;37554;50.362;7.568;2023-03-02T10:39:41;6.68;;;5.70;;
51475;SDS011;37554;50.362;7.568;2023-03-02T10:42:10;6.75;;;5.63;;
51475;SDS011;37554;50.362;7.568;2023-03-02T10:44:41;6.70;;;5.10;;
51475;SDS011;37554;50.362;7.568;2023-03-02T10:47:24;6.47;;;5.18;;
51475;SDS011;37554;50.362;7.568;2023-03-02T10:49:54;7.95;;;5.72;;
51475;SDS011;37554;50.362;7.568;2023-03-02T10:52:22;7.75;;;5.68;;
51475;SDS011;37554;50.362;7.568;2023-03-02T10:54:49;8.43;;;6.10;;
51475;SDS011;37554;50.362;7.568;2023-03-02T10:57:36;6.38;;;5.40;;
51475;SDS011;37554;50.362;7.568;2023-03-02T11:00:25;6.68;;;5.30;;
51475;SDS011;37554;50.362;7.568;2023-03-02T11:02:54;9.23;;;5.07;;
51475;SDS011;37554;50.362;7.568;2023-03-02T11:05:29;6.80;;;5.07;;
51475;SDS011;37554;50.362;7.568;2023-03-02T11:10:35;5.60;;;4.68;;
51475;SDS011;37554;50.362;7.568;2023-03-02T11:13:23;7.65;;;4.50;;
51475;SDS011;37554;50.362;7.568;2023-03-02T11:15:55;6.38;;;4.82;;
51475;SDS011;37554;50.362;7.568;2023-03-02T11:21:02;8.15;;;5.38;;
51475;SDS011;37554;50.362;7.568;2023-03-02T11:28:53;7.07;;;6.25;;
51475;SDS011;37554;50.362;7.568;2023-03-02T11:31:42;8.32;;;6.22;;
51475;SDS011;37554;50.362;7.568;2023-03-02T11:34:21;9.90;;;6.72;;
51475;SDS011;37554;50.362;7.568;2023-03-02T11:37:20;14.00;;;5.88;;
51475;SDS011;37554;50.362;7.568;2023-03-02T11:42:23;7.57;;;4.70;;
51475;SDS011;37554;50.362;7.568;2023-03-02T11:44:54;9.20;;;4.57;;
51475;SDS011;37554;50.362;7.568;2023-03-02T11:47:20;8.50;;;4.90;;
51475;SDS011;37554;50.362;7.568;2023-03-02T11:49:48;6.45;;;5.00;;
51475;SDS011;37554;50.362;7.568;2023-03-02T11:52:20;7.82;;;5.15;;
51475;SDS011;37554;50.362;7.568;2023-03-02T11:54:51;5.90;;;4.93;;
51475;SDS011;37554;50.362;7.568;2023-03-02T11:57:28;6.90;;;5.63;;
51475;SDS011;37554;50.362;7.568;2023-03-02T11:59:57;5.38;;;4.82;;
51475;SDS011;37554;50.362;7.568;2023-03-02T12:02:24;6.88;;;5.18;;
51475;SDS011;37554;50.362;7.568;2023-03-02T12:05:00;7.15;;;4.97;;
51475;SDS011;37554;50.362;7.568;2023-03-02T12:07:33;7.28;;;4.72;;
51475;SDS011;37554;50.362;7.568;2023-03-02T12:10:19;6.22;;;4.57;;
51475;SDS011;37554;50.362;7.568;2023-03-02T12:15:41;6.63;;;4.13;;
51475;SDS011;37554;50.362;7.568;2023-03-02T12:18:23;4.57;;;4.03;;
51475;SDS011;37554;50.362;7.568;2023-03-02T12:21:09;6.10;;;4.18;;
51475;SDS011;37554;50.362;7.568;2023-03-02T12:28:53;6.55;;;3.90;;
51475;SDS011;37554;50.362;7.568;2023-03-02T12:31:25;4.97;;;3.83;;
51475;SDS011;37554;50.362;7.568;2023-03-02T12:34:05;7.25;;;3.53;;
51475;SDS011;37554;50.362;7.568;2023-03-02T12:36:54;7.13;;;3.53;;
51475;SDS011;37554;50.362;7.568;2023-03-02T12:39:39;5.20;;;4.00;;
51475;SDS011;37554;50.362;7.568;2023-03-02T12:45:33;4.85;;;3.42;;
51475;SDS011;37554;50.362;7.568;2023-03-02T12:50:50;5.82;;;3.85;;
51475;SDS011;37554;50.362;7.568;2023-03-02T12:53:19;7.43;;;3.63;;
51475;SDS011;37554;50.362;7.568;2023-03-02T12:55:45;5.15;;;3.45;;
51475;SDS011;37554;50.362;7.568;2023-03-02T12:58:18;6.05;;;3.65;;
51475;SDS011;37554;50.362;7.568;2023-03-02T13:00:53;8.50;;;3.88;;
51475;SDS011;37554;50.362;7.568;2023-03-02T13:03:23;6.00;;;3.60;;
51475;SDS011;37554;50.362;7.568;2023-03-02T13:05:50;5.03;;;3.22;;
51475;SDS011;37554;50.362;7.568;2023-03-02T13:08:36;4.10;;;2.90;;
51475;SDS011;37554;50.362;7.568;2023-03-02T13:11:02;5.30;;;2.97;;
51475;SDS011;37554;50.362;7.568;2023-03-02T13:15:57;5.10;;;2.90;;
51475;SDS011;37554;50.362;7.568;2023-03-02T13:18:33;7.00;;;2.83;;
51475;SDS011;37554;50.362;7.568;2023-03-02T13:21:01;5.43;;;2.75;;
51475;SDS011;37554;50.362;7.568;2023-03-02T13:23:29;5.78;;;3.03;;
51475;SDS011;37554;50.362;7.568;2023-03-02T13:25:57;6.05;;;2.70;;
51475;SDS011;37554;50.362;7.568;2023-03-02T13:28:28;4.63;;;2.78;;
51475;SDS011;37554;50.362;7.568;2023-03-02T13:30:59;7.00;;;3.10;;
51475;SDS011;37554;50.362;7.568;2023-03-02T13:33:46;3.60;;;2.60;;
51475;SDS011;37554;50.362;7.568;2023-03-02T13:36:20;4.10;;;2.63;;
51475;SDS011;37554;50.362;7.568;2023-03-02T13:41:50;3.47;;;2.42;;
51475;SDS011;37554;50.362;7.568;2023-03-02T13:44:21;4.07;;;2.40;;
51475;SDS011;37554;50.362;7.568;2023-03-02T13:46:58;5.68;;;2.92;;
51475;SDS011;37554;50.362;7.568;2023-03-02T13:49:28;4.18;;;2.90;;
51475;SDS011;37554;50.362;7.568;2023-03-02T13:52:07;3.47;;;2.47;;
51475;SDS011;37554;50.362;7.568;2023-03-02T13:54:43;4.18;;;2.40;;
51475;SDS011;37554;50.362;7.568;2023-03-02T13:57:14;4.13;;;2.50;;
51475;SDS011;37554;50.362;7.568;2023-03-02T13:59:42;3.13;;;2.22;;
51475;SDS011;37554;50.362;7.568;2023-03-02T14:02:20;3.80;;;2.17;;
51475;SDS011;37554;50.362;7.568;2023-03-02T14:04:51;3.35;;;2.13;;
51475;SDS011;37554;50.362;7.568;2023-03-02T14:07:17;3.72;;;2.30;;
51475;SDS011;37554;50.362;7.568;2023-03-02T14:09:43;4.43;;;2.40;;
51475;SDS011;37554;50.362;7.568;2023-03-02T14:12:11;3.67;;;2.05;;
51475;SDS011;37554;50.362;7.568;2023-03-02T14:14:51;2.97;;;2.20;;
51475;SDS011;37554;50.362;7.568;2023-03-02T14:17:21;3.63;;;2.30;;
51475;SDS011;37554;50.362;7.568;2023-03-02T14:19:48;4.25;;;2.15;;
51475;SDS011;37554;50.362;7.568;2023-03-02T14:22:17;3.30;;;2.28;;
51475;SDS011;37554;50.362;7.568;2023-03-02T14:24:43;3.28;;;2.22;;
51475;SDS011;37554;50.362;7.568;2023-03-02T14:27:10;2.25;;;1.77;;
51475;SDS011;37554;50.362;7.568;2023-03-02T14:29:40;2.88;;;1.80;;
51475;SDS011;37554;50.362;7.568;2023-03-02T14:32:08;5.40;;;2.10;;
51475;SDS011;37554;50.362;7.568;2023-03-02T14:34:35;7.93;;;2.53;;
51475;SDS011;37554;50.362;7.568;2023-03-02T14:37:05;6.15;;;2.08;;
51475;SDS011;37554;50.362;7.568;2023-03-02T14:39:44;3.53;;;2.50;;
51475;SDS011;37554;50.362;7.568;2023-03-02T14:42:15;2.00;;;1.77;;
51475;SDS011;37554;50.362;7.568;2023-03-02T14:44:43;4.82;;;2.00;;
51475;SDS011;37554;50.362;7.568;2023-03-02T14:47:11;4.30;;;2.13;;
51475;SDS011;37554;50.362;7.568;2023-03-02T14:49:40;4.20;;;2.28;;
51475;SDS011;37554;50.362;7.568;2023-03-02T14:52:20;7.72;;;1.98;;
51475;SDS011;37554;50.362;7.568;2023-03-02T14:54:55;2.92;;;1.92;;
51475;SDS011;37554;50.362;7.568;2023-03-02T14:57:26;3.83;;;1.95;;
51475;SDS011;37554;50.362;7.568;2023-03-02T14:59:53;4.95;;;1.95;;
51475;SDS011;37554;50.362;7.568;2023-03-02T15:02:20;3.25;;;1.63;;
51475;SDS011;37554;50.362;7.568;2023-03-02T15:04:47;2.53;;;1.60;;
51475;SDS011;37554;50.362;7.568;2023-03-02T15:07:16;2.83;;;1.70;;
51475;SDS011;37554;50.362;7.568;2023-03-02T15:09:43;5.63;;;1.70;;
51475;SDS011;37554;50.362;7.568;2023-03-02T15:12:10;4.78;;;2.22;;
51475;SDS011;37554;50.362;7.568;2023-03-02T15:14:36;3.65;;;2.00;;
51475;SDS011;37554;50.362;7.568;2023-03-02T15:17:02;4.63;;;2.00;;
51475;SDS011;37554;50.362;7.568;2023-03-02T15:19:28;3.70;;;2.00;;
51475;SDS011;37554;50.362;7.568;2023-03-02T15:21:53;4.25;;;2.22;;
51475;SDS011;37554;50.362;7.568;2023-03-02T15:24:19;4.30;;;1.90;;
51475;SDS011;37554;50.362;7.568;2023-03-02T15:26:48;5.38;;;2.20;;
51475;SDS011;37554;50.362;7.568;2023-03-02T15:29:14;4.00;;;1.52;;
51475;SDS011;37554;50.362;7.568;2023-03-02T15:31:41;2.58;;;1.58;;
51475;SDS011;37554;50.362;7.568;2023-03-02T15:34:06;4.13;;;1.80;;
51475;SDS011;37554;50.362;7.568;2023-03-02T15:36:32;3.92;;;1.90;;
51475;SDS011;37554;50.362;7.568;2023-03-02T15:38:57;2.97;;;1.98;;
51475;SDS011;37554;50.362;7.568;2023-03-02T15:41:23;5.68;;;2.03;;
51475;SDS011;37554;50.362;7.568;2023-03-02T15:43:50;6.25;;;2.22;;
51475;SDS011;37554;50.362;7.568;2023-03-02T15:46:17;4.75;;;2.10;;
51475;SDS011;37554;50.362;7.568;2023-03-02T15:48:43;4.88;;;2.22;;
51475;SDS011;37554;50.362;7.568;2023-03-02T15:51:09;3.33;;;1.98;;
51475;SDS011;37554;50.362;7.568;2023-03-02T15:53:36;3.33;;;1.90;;
51475;SDS011;37554;50.362;7.568;2023-03-02T15:56:12;2.17;;;1.67;;
51475;SDS011;37554;50.362;7.568;2023-03-02T15:58:40;3.05;;;1.80;;
51475;SDS011;37554;50.362;7.568;2023-03-02T16:01:10;3.15;;;2.00;;